Time;durP1;ratioP1;P1;durP2;ratioP2;P2;SDS_P1;SDS_P2;PMS_P1;PMS_P2;Temp;Humidity;BMP_temperature;BMP_pressure;BME280_temperature;BME280_humidity;BME280_pressure;Samples;Min_cycle;Max_cycle;Signal;HPM_P1;HPM_P2
2022/10/04 00:01:11;;;;;;;12.80;7.03;;;10.30;99.90;;;;;;4739304;30;20261;-84
2022/10/04 00:03:45;;;;;;;12.10;6.93;;;10.20;99.90;;;;;;4784611;24;20266;-87
2022/10/04 00:06:24;;;;;;;11.20;6.97;;;10.30;99.90;;;;;;4792378;29;20227;-86
2022/10/04 00:09:16;;;;;;;12.47;7.07;;;10.30;99.90;;;;;;4792888;29;20203;-86
2022/10/04 00:11:45;;;;;;;12.53;6.90;;;10.20;99.90;;;;;;4752839;30;20210;-85
2022/10/04 00:14:19;;;;;;;13.53;7.57;;;10.30;99.90;;;;;;4752533;30;20232;-85
2022/10/04 00:16:47;;;;;;;11.33;6.77;;;10.30;99.90;;;;;;4752810;30;20228;-87
2022/10/04 00:19:14;;;;;;;12.77;7.10;;;10.30;99.90;;;;;;4753007;30;20637;-87
2022/10/04 00:21:55;;;;;;;11.17;5.90;;;10.30;99.90;;;;;;4738519;30;20606;-84
2022/10/04 00:24:27;;;;;;;10.20;6.07;;;10.30;99.90;;;;;;4729467;30;20309;-86
2022/10/04 00:27:24;;;;;;;10.80;6.33;;;10.30;99.90;;;;;;4720811;30;20635;-87
2022/10/04 00:30:03;;;;;;;13.73;6.47;;;10.40;99.90;;;;;;4735015;30;20214;-84
2022/10/04 00:32:40;;;;;;;11.03;5.80;;;10.40;99.90;;;;;;4734902;30;20376;-85
2022/10/04 00:35:27;;;;;;;12.40;6.10;;;10.40;99.90;;;;;;4734482;30;20248;-84
2022/10/04 00:38:06;;;;;;;11.23;5.97;;;10.40;99.90;;;;;;4719917;30;20249;-85
2022/10/04 00:40:59;;;;;;;11.83;6.23;;;10.40;99.90;;;;;;4720297;30;20599;-84
2022/10/04 00:43:45;;;;;;;10.93;6.30;;;10.30;99.90;;;;;;4717111;30;20233;-85
2022/10/04 00:46:19;;;;;;;11.13;6.00;;;10.30;99.90;;;;;;4702443;30;20256;-84
2022/10/04 00:48:49;;;;;;;10.47;5.70;;;10.30;99.90;;;;;;4733896;30;20229;-87
2022/10/04 00:51:27;;;;;;;12.23;6.00;;;10.30;99.90;;;;;;4752465;30;20501;-88
2022/10/04 00:53:56;;;;;;;11.47;6.20;;;10.40;99.90;;;;;;4737528;30;20242;-83
2022/10/04 00:56:36;;;;;;;11.53;6.03;;;10.30;99.90;;;;;;4752184;30;20606;-86
2022/10/04 00:59:27;;;;;;;11.80;5.63;;;10.30;99.90;;;;;;4737344;30;20209;-86
2022/10/04 01:02:25;;;;;;;11.50;6.13;;;10.30;99.90;;;;;;4736851;30;20239;-82
2022/10/04 01:05:03;;;;;;;14.27;6.60;;;10.20;99.90;;;;;;4751939;30;20263;-84
2022/10/04 01:07:34;;;;;;;13.57;5.60;;;10.20;99.90;;;;;;4762498;30;20223;-85
2022/10/04 01:10:08;;;;;;;9.93;5.63;;;10.20;99.90;;;;;;4769591;30;20205;-84
2022/10/04 01:13:02;;;;;;;14.03;5.50;;;10.10;99.90;;;;;;4769615;30;20213;-85
2022/10/04 01:15:44;;;;;;;14.13;5.87;;;10.10;99.90;;;;;;4769317;30;20653;-82
2022/10/04 01:18:15;;;;;;;14.33;6.07;;;10.20;99.90;;;;;;4769460;30;20299;-84
2022/10/04 01:21:07;;;;;;;14.27;6.10;;;10.10;99.90;;;;;;4791904;29;20625;-84
2022/10/04 01:23:40;;;;;;;10.60;5.57;;;10.20;99.90;;;;;;4791013;29;20216;-81
2022/10/04 01:26:27;;;;;;;10.73;5.23;;;10.20;99.90;;;;;;4790872;29;20199;-81
2022/10/04 01:29:23;;;;;;;10.53;5.00;;;10.20;99.90;;;;;;4790991;29;20659;-82
2022/10/04 01:31:52;;;;;;;11.27;4.83;;;10.10;99.90;;;;;;4791146;29;20203;-81
2022/10/04 01:34:55;;;;;;;9.67;4.60;;;10.10;99.90;;;;;;4792944;24;20322;-82
2022/10/04 01:37:22;;;;;;;11.70;4.87;;;10.10;99.90;;;;;;4776846;29;20298;-81
2022/10/04 01:39:49;;;;;;;9.03;4.63;;;10.10;99.90;;;;;;4791344;29;20208;-81
2022/10/04 01:42:50;;;;;;;10.80;4.70;;;10.00;99.90;;;;;;4807335;29;20328;-84
2022/10/04 01:45:50;;;;;;;8.10;4.30;;;9.90;99.90;;;;;;4788880;29;20204;-79
2022/10/04 01:48:24;;;;;;;16.77;4.90;;;9.90;99.90;;;;;;4789015;29;20260;-82
2022/10/04 01:51:03;;;;;;;9.70;4.37;;;9.90;99.90;;;;;;4755180;30;20215;-82
2022/10/04 01:53:34;;;;;;;12.10;4.60;;;9.90;99.90;;;;;;4754865;30;20701;-84
2022/10/04 01:56:12;;;;;;;11.30;4.70;;;10.10;99.90;;;;;;4753762;30;20675;-81
2022/10/04 01:58:49;;;;;;;12.33;4.60;;;10.00;99.90;;;;;;4754930;30;20671;-83
2022/10/04 02:01:36;;;;;;;8.87;4.17;;;10.00;99.90;;;;;;4755506;30;20239;-81
2022/10/04 02:04:22;;;;;;;8.30;4.10;;;9.90;99.90;;;;;;4754945;30;20775;-82
2022/10/04 02:06:53;;;;;;;12.47;4.37;;;9.90;99.90;;;;;;4754774;30;20223;-80
2022/10/04 02:09:46;;;;;;;9.73;4.40;;;9.90;99.90;;;;;;4755246;30;20288;-81
2022/10/04 02:12:17;;;;;;;10.23;4.30;;;9.90;99.90;;;;;;4771387;30;20204;-84
2022/10/04 02:14:53;;;;;;;9.77;4.57;;;10.00;99.90;;;;;;4770652;30;20228;-82
2022/10/04 02:17:27;;;;;;;13.33;4.83;;;9.90;99.90;;;;;;4755567;30;20551;-81
2022/10/04 02:19:55;;;;;;;11.27;4.10;;;9.90;99.90;;;;;;4755256;30;20206;-82
2022/10/04 02:22:24;;;;;;;9.60;4.77;;;9.90;99.90;;;;;;4754889;30;20200;-82
2022/10/04 02:24:54;;;;;;;8.93;4.00;;;9.80;99.90;;;;;;4755126;30;20712;-84
2022/10/04 02:27:30;;;;;;;8.63;3.87;;;9.80;99.90;;;;;;4754963;30;20209;-85
2022/10/04 02:30:07;;;;;;;10.03;4.33;;;9.80;99.90;;;;;;4755203;30;20277;-84
2022/10/04 02:35:34;;;;;;;10.13;4.33;;;9.80;99.90;;;;;;4753853;30;20241;-84
2022/10/04 02:38:21;;;;;;;7.67;4.07;;;9.80;99.90;;;;;;4770967;30;20251;-84
2022/10/04 02:41:20;;;;;;;8.27;4.00;;;9.70;99.90;;;;;;4755012;30;20227;-83
2022/10/04 02:43:57;;;;;;;7.23;3.87;;;9.80;99.90;;;;;;4733445;30;20574;-85
2022/10/04 02:46:41;;;;;;;7.50;3.93;;;9.80;99.90;;;;;;4733610;30;20304;-84
2022/10/04 02:49:20;;;;;;;11.03;4.20;;;9.80;99.90;;;;;;4733217;30;20336;-84
2022/10/04 02:51:56;;;;;;;7.63;4.03;;;9.80;99.90;;;;;;4704403;30;20210;-85
2022/10/04 02:54:34;;;;;;;7.07;3.63;;;9.70;99.90;;;;;;4733256;30;20291;-83
2022/10/04 02:57:01;;;;;;;7.93;3.27;;;9.70;99.90;;;;;;4732975;30;20209;-83
2022/10/04 02:59:30;;;;;;;9.53;3.57;;;9.80;99.90;;;;;;4733700;30;20210;-84
2022/10/04 03:02:01;;;;;;;6.00;2.87;;;9.80;99.90;;;;;;4733211;30;20210;-81
2022/10/04 03:04:38;;;;;;;4.73;2.90;;;9.80;99.90;;;;;;4733223;30;20277;-83
2022/10/04 03:07:08;;;;;;;7.90;3.50;;;9.80;99.90;;;;;;4732831;30;20421;-83
2022/10/04 03:09:36;;;;;;;4.93;3.00;;;9.80;99.90;;;;;;4733470;30;20214;-81
2022/10/04 03:12:04;;;;;;;7.37;3.67;;;9.90;99.90;;;;;;4733986;30;20206;-84
2022/10/04 03:14:32;;;;;;;6.93;3.60;;;9.80;99.90;;;;;;4737443;30;20245;-85
2022/10/04 03:17:02;;;;;;;7.10;3.63;;;9.90;99.90;;;;;;4736515;30;20673;-83
2022/10/04 03:19:31;;;;;;;6.60;3.77;;;10.00;99.90;;;;;;4736487;30;20209;-83
2022/10/04 03:22:06;;;;;;;7.97;4.30;;;10.00;99.90;;;;;;4755541;30;20209;-84
2022/10/04 03:24:45;;;;;;;7.30;4.37;;;9.90;99.90;;;;;;4757352;30;20228;-85
2022/10/04 03:27:20;;;;;;;8.93;4.70;;;9.90;99.90;;;;;;4757948;30;20192;-85
2022/10/04 03:29:49;;;;;;;9.53;4.93;;;10.00;99.90;;;;;;4758350;30;20217;-84
2022/10/04 03:32:21;;;;;;;9.30;4.37;;;10.00;99.90;;;;;;4757948;30;20236;-84
2022/10/04 03:34:56;;;;;;;9.13;5.00;;;9.90;99.90;;;;;;4757152;30;20237;-83
2022/10/04 03:37:25;;;;;;;7.90;4.80;;;10.00;99.90;;;;;;4757460;30;20709;-81
2022/10/04 03:39:54;;;;;;;10.83;5.30;;;9.90;99.90;;;;;;4757568;30;20212;-85
2022/10/04 03:42:40;;;;;;;9.40;5.33;;;9.90;99.90;;;;;;4757580;30;20216;-82
2022/10/04 03:45:14;;;;;;;8.77;5.37;;;10.00;99.90;;;;;;4757502;30;20209;-80
2022/10/04 03:47:45;;;;;;;8.43;5.13;;;9.90;99.90;;;;;;4757811;30;20208;-83
2022/10/04 03:50:25;;;;;;;8.77;5.27;;;9.90;99.90;;;;;;4757937;30;20229;-84
2022/10/04 03:53:05;;;;;;;9.73;5.43;;;9.90;99.90;;;;;;4757474;30;20266;-83
2022/10/04 03:55:36;;;;;;;8.13;5.73;;;9.90;99.90;;;;;;4756990;30;20254;-83
2022/10/04 03:58:06;;;;;;;10.10;5.47;;;9.90;99.90;;;;;;4757644;30;20208;-85
2022/10/04 04:00:41;;;;;;;9.80;5.33;;;9.90;99.90;;;;;;4773779;30;20218;-86
2022/10/04 04:03:15;;;;;;;8.90;5.20;;;10.10;99.90;;;;;;4757801;30;20201;-81
2022/10/04 04:05:49;;;;;;;13.00;6.00;;;10.00;99.90;;;;;;4757605;30;20211;-85
2022/10/04 04:08:35;;;;;;;8.33;5.50;;;10.10;99.90;;;;;;4757783;30;20193;-82
2022/10/04 04:11:06;;;;;;;11.60;5.30;;;10.00;99.90;;;;;;4757526;30;20212;-84
2022/10/04 04:13:57;;;;;;;13.80;5.63;;;10.00;99.90;;;;;;4773026;30;20204;-82
2022/10/04 04:16:27;;;;;;;13.80;5.80;;;10.00;99.90;;;;;;4757488;30;20643;-85
2022/10/04 04:18:59;;;;;;;11.33;5.57;;;10.10;99.90;;;;;;4757774;30;20643;-83
2022/10/04 04:21:28;;;;;;;10.50;5.80;;;10.10;99.90;;;;;;4773863;30;20605;-84
2022/10/04 04:24:01;;;;;;;8.17;5.53;;;10.00;99.90;;;;;;4756693;30;20201;-79
2022/10/04 04:26:53;;;;;;;9.47;5.20;;;10.10;99.90;;;;;;4757144;30;20193;-85
2022/10/04 04:29:51;;;;;;;9.40;5.17;;;10.10;99.90;;;;;;4756733;30;20200;-86
2022/10/04 04:32:23;;;;;;;7.73;5.00;;;10.10;99.90;;;;;;4757123;30;20231;-85
2022/10/04 04:34:52;;;;;;;10.27;5.30;;;10.10;99.90;;;;;;4773227;30;20242;-82
2022/10/04 04:37:32;;;;;;;9.87;5.27;;;10.10;99.90;;;;;;4772867;30;20209;-86
2022/10/04 04:40:28;;;;;;;11.47;5.60;;;10.10;99.90;;;;;;4756791;30;20204;-83
2022/10/04 04:42:58;;;;;;;9.57;5.27;;;10.20;99.90;;;;;;4772731;30;20212;-83
2022/10/04 04:45:31;;;;;;;12.17;5.93;;;10.20;99.90;;;;;;4757249;30;20291;-86
2022/10/04 04:48:00;;;;;;;9.80;6.07;;;10.10;99.90;;;;;;4755947;30;20235;-86
2022/10/04 04:50:34;;;;;;;12.53;6.10;;;10.20;99.90;;;;;;4772472;30;20572;-86
2022/10/04 04:53:06;;;;;;;10.67;6.33;;;10.30;99.90;;;;;;4756273;30;20216;-84
2022/10/04 04:55:42;;;;;;;12.33;6.23;;;10.20;99.90;;;;;;4756368;30;20706;-82
2022/10/04 04:58:37;;;;;;;10.97;6.00;;;10.20;99.90;;;;;;4772287;30;20246;-86
2022/10/04 05:01:06;;;;;;;18.00;6.33;;;10.20;99.90;;;;;;4756639;30;20560;-86
2022/10/04 05:03:33;;;;;;;12.43;5.63;;;10.40;99.90;;;;;;4756377;30;20213;-86
2022/10/04 05:06:03;;;;;;;10.67;5.70;;;10.20;99.90;;;;;;4741212;30;20254;-86
2022/10/04 05:08:32;;;;;;;10.97;5.90;;;10.30;99.90;;;;;;4772008;30;20218;-84
2022/10/04 05:11:20;;;;;;;9.83;5.70;;;10.30;99.90;;;;;;4755976;30;20283;-81
2022/10/04 05:13:56;;;;;;;11.30;5.50;;;10.30;99.90;;;;;;4755838;30;20304;-83
2022/10/04 05:16:44;;;;;;;11.93;5.67;;;10.40;99.90;;;;;;4755856;30;20717;-83
2022/10/04 05:19:23;;;;;;;10.43;4.87;;;10.40;99.90;;;;;;4755740;30;20206;-82
2022/10/04 05:21:53;;;;;;;8.13;4.83;;;10.30;99.90;;;;;;4755357;30;20204;-86
2022/10/04 05:24:22;;;;;;;8.03;4.90;;;10.30;99.90;;;;;;4755733;30;20205;-85
2022/10/04 05:26:53;;;;;;;9.60;4.83;;;10.20;99.90;;;;;;4771744;30;20729;-83
2022/10/04 05:29:27;;;;;;;8.80;4.80;;;10.20;99.90;;;;;;4756342;30;20287;-86
2022/10/04 05:32:22;;;;;;;7.97;4.63;;;10.10;99.90;;;;;;4771852;30;20684;-89
2022/10/04 05:34:50;;;;;;;7.40;4.57;;;10.20;99.90;;;;;;4755267;30;20432;-88
2022/10/04 05:37:35;;;;;;;7.80;4.60;;;10.20;99.90;;;;;;4755760;30;20205;-85
2022/10/04 05:40:38;;;;;;;9.43;4.70;;;10.30;99.90;;;;;;4771605;30;20208;-89
2022/10/04 05:43:27;;;;;;;7.70;4.30;;;10.40;99.90;;;;;;4742764;30;20685;-83
2022/10/04 05:46:09;;;;;;;10.37;4.30;;;10.50;99.90;;;;;;4749846;30;20212;-83
2022/10/04 05:48:40;;;;;;;14.57;4.73;;;10.50;99.90;;;;;;4771645;30;20284;-84
2022/10/04 05:51:19;;;;;;;9.57;4.50;;;10.50;99.90;;;;;;4754192;30;20702;-85
2022/10/04 05:53:48;;;;;;;8.03;4.13;;;10.50;99.90;;;;;;4753070;30;20303;-83
2022/10/04 05:56:40;;;;;;;6.70;4.50;;;10.50;99.90;;;;;;4760940;30;20625;-86
2022/10/04 05:59:10;;;;;;;6.77;4.60;;;10.50;99.90;;;;;;4754814;30;20206;-88
2022/10/04 06:01:58;;;;;;;8.90;4.43;;;10.60;99.90;;;;;;4752139;30;20205;-83
2022/10/04 06:04:52;;;;;;;8.27;4.40;;;10.70;99.90;;;;;;4755287;30;20669;-85
2022/10/04 06:07:37;;;;;;;6.07;4.10;;;10.70;99.90;;;;;;4709591;30;20344;-88
2022/10/04 06:10:24;;;;;;;9.07;4.03;;;10.80;99.90;;;;;;4705670;30;20218;-76
2022/10/04 06:13:18;;;;;;;7.27;3.53;;;10.70;99.90;;;;;;4710929;30;20250;-89
2022/10/04 06:16:07;;;;;;;6.73;3.70;;;10.80;99.90;;;;;;4702415;30;20231;-83
2022/10/04 06:18:55;;;;;;;6.80;3.60;;;10.80;99.90;;;;;;4701286;30;20295;-83
2022/10/04 06:21:51;;;;;;;5.63;3.53;;;10.80;99.90;;;;;;4687552;30;20219;-91
2022/10/04 06:24:28;;;;;;;7.17;3.47;;;10.90;99.90;;;;;;4701560;30;20214;-90
2022/10/04 06:27:03;;;;;;;7.33;3.87;;;11.00;99.90;;;;;;4715618;30;20210;-86
2022/10/04 06:29:37;;;;;;;7.03;3.63;;;11.10;99.90;;;;;;4701288;30;20218;-91
2022/10/04 06:32:10;;;;;;;7.10;3.50;;;11.10;99.90;;;;;;4701171;30;20218;-85
2022/10/04 06:35:16;;;;;;;7.43;3.70;;;11.10;99.90;;;;;;4715404;30;20253;-84
2022/10/04 06:37:49;;;;;;;8.43;3.53;;;11.20;99.90;;;;;;4700797;30;20210;-86
2022/10/04 06:40:25;;;;;;;7.60;4.30;;;11.20;99.90;;;;;;4715668;30;20670;-88
2022/10/04 06:43:07;;;;;;;12.13;4.50;;;11.10;99.90;;;;;;4701127;30;20245;-81
2022/10/04 06:46:14;;;;;;;7.30;3.87;;;11.30;99.90;;;;;;4766090;30;20210;-93
2022/10/04 06:49:16;;;;;;;8.60;4.07;;;11.20;99.90;;;;;;4751166;30;20201;-85
2022/10/04 06:52:24;;;;;;;9.20;4.20;;;11.20;99.90;;;;;;4756174;30;20208;-93
2022/10/04 06:55:29;;;;;;;6.83;3.80;;;11.20;99.90;;;;;;4723118;30;20214;-87
2022/10/04 06:58:16;;;;;;;6.80;3.40;;;11.20;99.90;;;;;;4752800;30;20213;-95
2022/10/04 07:01:00;;;;;;;9.47;4.00;;;11.20;99.90;;;;;;4739070;30;20209;-95
2022/10/04 07:03:38;;;;;;;7.90;3.80;;;11.20;99.90;;;;;;4739357;30;20267;-92
2022/10/04 07:06:09;;;;;;;11.00;5.13;;;11.30;99.90;;;;;;4744720;30;20581;-81
2022/10/04 07:08:46;;;;;;;6.63;3.77;;;11.40;99.90;;;;;;4768017;30;20193;-81
2022/10/04 07:11:16;;;;;;;7.17;3.80;;;11.50;99.90;;;;;;4730143;30;20204;-79
2022/10/04 07:14:01;;;;;;;5.00;3.60;;;11.60;99.90;;;;;;4753538;30;20205;-93
2022/10/04 07:16:41;;;;;;;8.73;3.80;;;11.60;99.90;;;;;;4752260;30;20223;-89
2022/10/04 07:19:35;;;;;;;5.73;3.27;;;11.60;99.90;;;;;;4752974;30;20193;-85
2022/10/04 07:22:05;;;;;;;7.97;4.17;;;11.60;99.90;;;;;;4761689;30;20205;-87
2022/10/04 07:24:52;;;;;;;5.70;3.50;;;11.70;99.90;;;;;;4751049;30;20942;-86
2022/10/04 07:27:31;;;;;;;6.20;3.60;;;11.70;99.90;;;;;;4753430;30;20193;-92
2022/10/04 07:30:02;;;;;;;8.10;4.20;;;11.70;99.90;;;;;;4753980;30;20258;-84
2022/10/04 07:32:37;;;;;;;7.03;3.40;;;11.80;99.90;;;;;;4754449;30;20219;-82
2022/10/04 07:35:11;;;;;;;6.47;3.60;;;11.70;99.90;;;;;;4753237;30;20315;-83
2022/10/04 07:37:53;;;;;;;7.60;3.20;;;11.90;99.90;;;;;;4751342;30;20301;-87
2022/10/04 07:40:28;;;;;;;9.23;3.33;;;11.80;99.90;;;;;;4736158;30;20610;-86
2022/10/04 07:43:12;;;;;;;7.13;3.30;;;11.70;99.90;;;;;;4752425;30;20335;-83
2022/10/04 07:45:41;;;;;;;6.67;3.40;;;11.80;99.90;;;;;;4745698;30;20301;-82
2022/10/04 07:48:22;;;;;;;6.77;3.00;;;11.80;99.90;;;;;;4752739;30;20296;-85
2022/10/04 07:50:55;;;;;;;7.90;3.30;;;11.70;99.90;;;;;;4768074;30;20229;-85
2022/10/04 07:53:37;;;;;;;5.30;3.07;;;11.70;99.90;;;;;;4751721;30;20206;-81
2022/10/04 07:56:18;;;;;;;4.27;2.77;;;11.70;99.90;;;;;;4755784;30;20712;-83
2022/10/04 07:59:21;;;;;;;6.00;2.80;;;11.70;99.90;;;;;;4753504;30;20204;-83
2022/10/04 08:02:34;;;;;;;5.57;2.57;;;11.80;99.90;;;;;;4771805;30;20304;-79
2022/10/04 08:05:36;;;;;;;5.70;2.70;;;11.90;99.90;;;;;;4758494;30;20664;-77
2022/10/04 08:11:33;;;;;;;6.47;2.60;;;12.00;99.90;;;;;;4786656;30;20258;-82
2022/10/04 08:17:46;;;;;;;3.63;2.33;;;12.10;99.90;;;;;;4734373;30;20244;-80
2022/10/04 08:20:28;;;;;;;8.07;2.60;;;12.00;99.90;;;;;;4736789;30;20216;-79
2022/10/04 08:23:17;;;;;;;5.40;2.37;;;12.00;99.90;;;;;;4749767;30;20218;-78
2022/10/04 08:25:53;;;;;;;7.37;2.27;;;12.10;99.90;;;;;;4749078;30;20206;-78
2022/10/04 08:32:04;;;;;;;4.87;2.50;;;12.20;99.90;;;;;;4749341;30;20231;-80
2022/10/04 08:34:56;;;;;;;3.50;1.90;;;12.30;99.90;;;;;;4750214;30;20226;-86
2022/10/04 08:37:23;;;;;;;5.30;2.10;;;12.40;99.90;;;;;;4723513;30;20300;-84
2022/10/04 08:40:23;;;;;;;4.13;2.00;;;12.40;99.90;;;;;;4746488;30;20214;-77
2022/10/04 08:42:59;;;;;;;4.23;2.13;;;12.40;99.90;;;;;;4742836;30;20214;-87
2022/10/04 08:45:37;;;;;;;4.10;2.20;;;12.50;99.90;;;;;;4734448;30;20305;-81
2022/10/04 08:48:31;;;;;;;3.93;2.17;;;12.80;99.90;;;;;;4732582;30;20205;-87
2022/10/04 08:51:03;;;;;;;4.03;2.00;;;12.90;99.90;;;;;;4735413;30;20236;-87
2022/10/04 08:53:51;;;;;;;3.03;1.80;;;13.10;99.90;;;;;;4734386;30;20209;-87
2022/10/04 08:56:56;;;;;;;4.77;2.17;;;13.20;99.90;;;;;;4774006;29;20627;-84
2022/10/04 08:59:26;;;;;;;3.03;1.80;;;13.20;99.90;;;;;;4773828;30;20204;-83
2022/10/04 09:02:30;;;;;;;1.83;1.60;;;13.20;99.90;;;;;;4774375;30;20215;-83
2022/10/04 09:05:13;;;;;;;2.40;1.80;;;13.20;99.90;;;;;;4760229;29;20228;-81
2022/10/04 09:07:50;;;;;;;5.50;1.70;;;13.30;99.90;;;;;;4774012;29;20195;-73
2022/10/04 09:11:10;;;;;;;4.23;1.77;;;13.20;99.90;;;;;;4788095;29;20702;-77
2022/10/04 09:14:10;;;;;;;4.07;1.50;;;13.20;99.90;;;;;;4771848;30;20213;-76
2022/10/04 09:17:25;;;;;;;1.87;1.30;;;13.20;99.90;;;;;;4774144;30;20239;-85
2022/10/04 09:20:12;;;;;;;2.50;1.27;;;13.20;99.90;;;;;;4720080;30;20215;-74
2022/10/04 09:23:20;;;;;;;2.47;1.50;;;13.20;99.90;;;;;;4719830;30;20280;-81
2022/10/04 09:25:59;;;;;;;3.10;2.00;;;13.10;99.90;;;;;;4731775;30;20237;-82
2022/10/04 09:28:44;;;;;;;4.27;2.90;;;13.10;99.90;;;;;;4717285;30;20223;-79
2022/10/04 09:31:43;;;;;;;4.57;1.70;;;13.20;99.90;;;;;;4719870;30;20218;-81
2022/10/04 09:37:05;;;;;;;3.67;1.40;;;13.60;99.90;;;;;;4963944;24;20687;-82
2022/10/04 09:39:59;;;;;;;3.50;1.57;;;13.70;99.90;;;;;;4773941;30;20208;-80
2022/10/04 09:45:30;;;;;;;3.63;1.40;;;13.60;99.90;;;;;;4772247;24;20237;-85
2022/10/04 09:48:23;;;;;;;2.37;1.20;;;13.70;99.90;;;;;;4759989;30;20219;-85
2022/10/04 09:51:24;;;;;;;2.23;1.20;;;13.60;99.90;;;;;;4744344;30;20551;-83
2022/10/04 09:54:06;;;;;;;2.60;1.40;;;13.70;99.90;;;;;;4751451;30;20271;-89
2022/10/04 09:56:55;;;;;;;3.63;1.40;;;13.80;99.90;;;;;;4754095;30;20240;-82
2022/10/04 09:59:35;;;;;;;2.27;1.30;;;14.00;99.90;;;;;;4758761;30;20211;-84
2022/10/04 10:02:13;;;;;;;2.67;1.23;;;14.00;99.90;;;;;;4752366;30;20218;-81
2022/10/04 10:05:18;;;;;;;4.40;1.63;;;13.90;99.90;;;;;;4732264;30;20203;-81
2022/10/04 10:08:07;;;;;;;1.97;1.20;;;13.80;99.90;;;;;;4751259;30;20244;-80
2022/10/04 10:13:42;;;;;;;2.10;1.30;;;13.80;99.90;;;;;;4750245;30;20214;-82
2022/10/04 10:16:12;;;;;;;5.23;1.50;;;13.70;99.90;;;;;;4747914;30;20233;-82
2022/10/04 10:19:11;;;;;;;2.47;1.30;;;13.60;99.90;;;;;;4735715;30;20198;-81
2022/10/04 10:22:16;;;;;;;3.70;1.30;;;13.50;99.90;;;;;;4750206;30;20196;-90
2022/10/04 10:25:05;;;;;;;3.53;1.50;;;13.60;99.90;;;;;;4732929;30;20205;-84
2022/10/04 10:30:31;;;;;;;3.97;1.37;;;13.60;99.90;;;;;;4749097;30;20225;-84
2022/10/04 10:33:19;;;;;;;2.50;1.30;;;13.70;99.90;;;;;;4730760;30;20215;-81
2022/10/04 10:36:27;;;;;;;2.50;1.30;;;14.30;99.90;;;;;;4731399;30;20665;-85
2022/10/04 10:39:48;;;;;;;2.43;1.23;;;15.20;99.90;;;;;;4727567;30;20275;-89
2022/10/04 10:43:02;;;;;;;2.97;1.40;;;15.80;99.90;;;;;;4731538;30;20721;-85
2022/10/04 10:46:08;;;;;;;1.80;1.20;;;15.80;99.90;;;;;;4732055;30;20210;-84
2022/10/04 10:48:43;;;;;;;5.63;1.43;;;15.50;99.90;;;;;;4712783;30;20222;-87
2022/10/04 10:51:24;;;;;;;2.47;1.10;;;15.20;99.90;;;;;;4717522;30;20228;-87
2022/10/04 10:54:12;;;;;;;2.00;1.20;;;15.30;99.90;;;;;;4717756;30;20301;-80
2022/10/04 10:57:13;;;;;;;2.83;1.10;;;15.80;99.90;;;;;;4717588;30;20325;-87
2022/10/04 10:59:49;;;;;;;1.90;1.10;;;15.90;99.90;;;;;;4708940;30;20205;-82
2022/10/04 11:03:06;;;;;;;3.23;1.20;;;15.60;99.90;;;;;;4718271;30;20213;-85
2022/10/04 11:06:05;;;;;;;3.57;1.23;;;15.20;99.90;;;;;;4716834;30;20302;-82
2022/10/04 11:08:57;;;;;;;2.67;1.40;;;15.20;99.90;;;;;;4716641;30;20210;-82
2022/10/04 11:11:49;;;;;;;1.83;1.20;;;15.20;99.90;;;;;;4718894;30;20725;-83
2022/10/04 11:14:19;;;;;;;5.67;1.20;;;15.10;99.90;;;;;;4764341;30;20221;-80
2022/10/04 11:17:42;;;;;;;3.10;1.10;;;15.70;99.90;;;;;;4732777;30;20230;-85
2022/10/04 11:20:46;;;;;;;2.37;1.20;;;16.00;99.90;;;;;;4733486;30;20224;-80
2022/10/04 11:31:07;;;;;;;2.37;1.20;;;16.30;99.90;;;;;;4752799;30;20214;-85
2022/10/04 11:33:59;;;;;;;4.03;1.17;;;15.90;99.90;;;;;;4738193;30;20595;-83
2022/10/04 11:42:25;;;;;;;3.47;1.23;;;15.00;99.90;;;;;;4773176;27;20765;-80
2022/10/04 11:45:16;;;;;;;2.27;1.50;;;14.80;99.90;;;;;;4764463;30;20224;-80
2022/10/04 11:48:10;;;;;;;3.03;1.30;;;14.70;99.90;;;;;;4777262;30;20241;-85
2022/10/04 11:50:59;;;;;;;3.00;1.30;;;15.80;99.90;;;;;;4769133;30;20678;-81
2022/10/04 11:54:03;;;;;;;1.73;1.30;;;16.00;99.90;;;;;;4750657;30;20201;-79
2022/10/04 11:57:13;;;;;;;2.00;1.30;;;15.90;99.90;;;;;;4769580;30;20235;-81
2022/10/04 12:00:01;;;;;;;4.13;1.30;;;15.60;99.90;;;;;;4731133;30;20219;-77
2022/10/04 12:02:46;;;;;;;1.93;1.30;;;15.50;99.90;;;;;;4732200;30;20202;-82
2022/10/04 12:05:54;;;;;;;2.77;1.30;;;16.00;99.90;;;;;;4729448;30;20214;-75
2022/10/04 12:09:13;;;;;;;3.83;1.40;;;16.00;99.90;;;;;;4717066;30;20209;-81
2022/10/04 12:12:36;;;;;;;2.27;1.30;;;15.70;99.90;;;;;;4710781;30;20206;-85
2022/10/04 12:15:19;;;;;;;3.00;1.40;;;15.60;99.90;;;;;;4719942;30;20222;-87
2022/10/04 12:18:07;;;;;;;3.00;1.40;;;15.30;99.90;;;;;;4732863;30;20217;-83
2022/10/04 12:20:40;;;;;;;4.33;1.40;;;15.10;99.90;;;;;;4718641;30;20206;-82
2022/10/04 12:23:29;;;;;;;1.77;1.40;;;15.10;99.90;;;;;;4733865;30;20198;-81
2022/10/04 12:26:41;;;;;;;1.20;1.10;;;15.10;99.90;;;;;;4732584;30;20264;-82
2022/10/04 12:29:27;;;;;;;2.70;1.40;;;15.30;99.90;;;;;;4717128;30;20351;-87
2022/10/04 12:32:05;;;;;;;3.33;1.53;;;15.10;99.90;;;;;;4704809;30;20297;-82
2022/10/04 12:34:59;;;;;;;2.20;1.40;;;15.20;99.90;;;;;;4721853;30;20681;-81
2022/10/04 12:37:49;;;;;;;3.20;1.50;;;15.20;99.90;;;;;;4736955;30;20316;-89
2022/10/04 12:40:28;;;;;;;3.70;1.60;;;15.00;99.90;;;;;;4744909;30;20723;-76
2022/10/04 12:43:07;;;;;;;4.83;1.50;;;15.20;99.90;;;;;;4743258;30;20206;-80
2022/10/04 12:46:11;;;;;;;4.27;1.60;;;15.30;99.90;;;;;;4749178;30;20228;-79
2022/10/04 12:49:15;;;;;;;4.77;1.67;;;15.60;99.90;;;;;;4751241;30;20215;-84
2022/10/04 12:52:18;;;;;;;3.00;1.70;;;15.40;99.90;;;;;;4736974;30;20316;-80
2022/10/04 12:54:51;;;;;;;3.37;1.30;;;15.70;99.90;;;;;;4751428;30;20290;-80
2022/10/04 12:57:27;;;;;;;6.07;1.90;;;15.70;99.90;;;;;;4750909;30;20241;-82
2022/10/04 13:00:15;;;;;;;2.70;1.50;;;15.80;99.90;;;;;;4750833;30;20217;-82
2022/10/04 13:03:21;;;;;;;3.97;1.50;;;15.70;99.90;;;;;;4749656;30;20209;-78
2022/10/04 13:06:20;;;;;;;3.43;1.60;;;15.60;99.90;;;;;;4762459;30;20289;-78
2022/10/04 13:09:19;;;;;;;2.53;1.53;;;15.30;99.90;;;;;;4764885;30;20197;-79
2022/10/04 13:11:59;;;;;;;4.27;1.60;;;15.00;99.90;;;;;;4749721;30;20268;-76
2022/10/04 13:14:48;;;;;;;5.33;1.70;;;15.20;99.90;;;;;;4753929;30;20209;-82
2022/10/04 13:17:29;;;;;;;3.07;1.43;;;15.40;99.90;;;;;;4752234;30;20282;-88
2022/10/04 13:20:34;;;;;;;5.43;1.60;;;15.00;99.90;;;;;;4757445;30;20205;-83
2022/10/04 13:23:25;;;;;;;3.80;1.60;;;15.00;99.90;;;;;;4753044;30;20222;-82
2022/10/04 13:26:32;;;;;;;3.07;1.50;;;15.00;99.90;;;;;;4746532;30;20212;-83
2022/10/04 13:29:24;;;;;;;2.97;1.53;;;15.20;99.90;;;;;;4752075;30;20210;-85
2022/10/04 13:32:21;;;;;;;4.23;1.57;;;15.00;99.90;;;;;;4769916;24;20343;-84
2022/10/04 13:35:02;;;;;;;3.17;1.40;;;14.70;99.90;;;;;;4749740;30;20254;-85
2022/10/04 13:37:59;;;;;;;2.80;1.50;;;14.70;99.90;;;;;;4749696;30;20222;-85
2022/10/04 13:40:54;;;;;;;1.70;1.20;;;14.60;99.90;;;;;;4749549;30;20193;-84
2022/10/04 13:43:57;;;;;;;2.47;1.40;;;14.70;99.90;;;;;;4750364;30;20650;-81
2022/10/04 13:46:39;;;;;;;2.20;1.20;;;14.60;99.90;;;;;;4750384;30;20211;-77
2022/10/04 13:49:23;;;;;;;10.67;6.13;;;14.60;99.90;;;;;;4762612;30;20301;-83
2022/10/04 13:58:17;;;;;;;3.93;1.60;;;15.10;99.90;;;;;;4742816;30;20238;-78
2022/10/04 14:01:09;;;;;;;3.50;1.83;;;15.20;99.90;;;;;;4755006;30;20210;-79
2022/10/04 14:04:07;;;;;;;3.07;1.60;;;15.20;99.90;;;;;;4737775;30;20694;-85
2022/10/04 14:06:42;;;;;;;2.63;1.40;;;15.30;99.90;;;;;;4726527;30;20210;-79
2022/10/04 14:09:45;;;;;;;3.37;1.70;;;15.20;99.90;;;;;;4732814;30;20283;-83
2022/10/04 14:12:37;;;;;;;2.00;1.50;;;15.00;99.90;;;;;;4737647;30;20683;-82
2022/10/04 14:15:32;;;;;;;2.33;1.50;;;15.00;99.90;;;;;;4755982;30;20209;-75
2022/10/04 14:18:24;;;;;;;2.93;1.60;;;14.90;99.90;;;;;;4747848;30;20266;-77
2022/10/04 14:21:29;;;;;;;2.83;1.57;;;14.80;99.90;;;;;;4732455;30;20211;-83
2022/10/04 14:24:08;;;;;;;4.83;1.40;;;14.70;99.90;;;;;;4717514;30;20522;-82
2022/10/04 14:26:45;;;;;;;4.67;1.87;;;14.40;99.90;;;;;;4747326;30;20216;-80
2022/10/04 14:29:19;;;;;;;8.87;1.90;;;14.40;99.90;;;;;;4726143;30;20293;-78
2022/10/04 14:31:49;;;;;;;7.63;2.67;;;14.40;99.90;;;;;;4746914;30;20309;-81
2022/10/04 14:34:29;;;;;;;6.17;2.03;;;14.30;99.90;;;;;;4739274;30;20673;-79
2022/10/04 14:37:02;;;;;;;5.30;1.90;;;14.30;99.90;;;;;;4743496;30;20766;-77
2022/10/04 14:39:57;;;;;;;6.50;1.60;;;14.20;99.90;;;;;;4760680;30;20647;-73
2022/10/04 14:42:30;;;;;;;4.13;1.73;;;14.20;99.90;;;;;;4741224;30;20204;-74
2022/10/04 14:45:23;;;;;;;2.60;1.50;;;14.10;99.90;;;;;;4743060;30;20210;-77
2022/10/04 14:48:08;;;;;;;4.80;1.87;;;14.20;99.90;;;;;;4741903;30;20202;-79
2022/10/04 14:50:35;;;;;;;4.30;1.80;;;14.20;99.90;;;;;;4757349;30;20205;-78
2022/10/04 14:53:20;;;;;;;3.47;1.70;;;14.20;99.90;;;;;;4736751;30;20234;-77
2022/10/04 14:56:25;;;;;;;6.73;2.37;;;14.20;99.90;;;;;;4738002;30;20648;-84